^^
Your Local Weather - Clay, NY Station Historical Data
Daily Summary for December 1, 2017 Units:  English    Metric   Both
« Previous Day
Next Day »
Daily Weekly Monthly Yearly Custom
  High: Low: Average:
Temperature: 42.2 °F 27.0 °F 37.9 °F
Dew Point: 37.1 °F 25.0 °F 33.1 °F
Humidity: 92% 73% 83%
Wind Speed: 6.0mph 0.0mph 1.2mph
Wind Gust: 13.0mph - -
Wind- - WNW
Pressure: 30.27 in 29.97 in -
Precipitation: 0.04 in    
Historical Graphs
 
 
Tabular Data for December 1, 2017
Time Temperature Dew Point Pressure Wind Wind Speed Wind Gust Humidity Rainfall Rate (Hourly) solar
00:04 42.2 °F 37.1 °F 29.97 in WSW 2.0 mph 3.0 mph 82% 0.00 in 0 W/m2
00:10 42.0 °F 36.9 °F 29.97 in WSW 1.0 mph 1.0 mph 82% 0.00 in 0 W/m2
00:16 42.0 °F 36.9 °F 29.97 in WSW 1.0 mph 1.0 mph 82% 0.00 in 0 W/m2
00:22 41.9 °F 36.8 °F 29.97 in WSW 1.0 mph 3.0 mph 82% 0.00 in 0 W/m2
00:40 41.8 °F 36.7 °F 29.98 in WSW 1.0 mph 2.0 mph 82% 0.00 in 0 W/m2
00:58 41.8 °F 36.7 °F 29.98 in WSW 2.0 mph 5.0 mph 82% 0.00 in 0 W/m2
01:04 41.8 °F 36.7 °F 29.98 in WSW 1.0 mph 3.0 mph 82% 0.00 in 0 W/m2
01:10 41.8 °F 36.4 °F 29.98 in WSW 2.0 mph 2.0 mph 81% 0.00 in 0 W/m2
01:16 41.9 °F 36.5 °F 29.98 in WSW 1.0 mph 4.0 mph 81% 0.00 in 0 W/m2
01:22 41.9 °F 36.5 °F 29.99 in WSW 2.0 mph 3.0 mph 81% 0.00 in 0 W/m2
01:28 41.8 °F 36.4 °F 29.99 in SW 1.0 mph 3.0 mph 81% 0.00 in 0 W/m2
01:34 41.8 °F 36.4 °F 29.99 in WSW 1.0 mph 1.0 mph 81% 0.00 in 0 W/m2
01:40 41.8 °F 36.4 °F 29.99 in WSW 1.0 mph 1.0 mph 81% 0.00 in 0 W/m2
01:46 41.9 °F 36.5 °F 29.99 in SW 2.0 mph 2.0 mph 81% 0.00 in 0 W/m2
01:52 42.0 °F 36.3 °F 30.00 in WSW 2.0 mph 3.0 mph 80% 0.00 in 0 W/m2
02:04 42.0 °F 36.3 °F 30.00 in West 2.0 mph 2.0 mph 80% 0.00 in 0 W/m2
02:10 42.1 °F 36.1 °F 30.00 in WSW 2.0 mph 2.0 mph 79% 0.00 in 0 W/m2
02:16 42.1 °F 36.1 °F 30.01 in WSW 1.0 mph 3.0 mph 79% 0.00 in 0 W/m2
02:22 42.2 °F 36.2 °F 30.01 in WSW 2.0 mph 2.0 mph 79% 0.00 in 0 W/m2
02:28 42.2 °F 36.2 °F 30.01 in SW 1.0 mph 4.0 mph 79% 0.00 in 0 W/m2
02:34 42.2 °F 36.2 °F 30.02 in West 2.0 mph 3.0 mph 79% 0.00 in 0 W/m2
02:40 42.2 °F 36.2 °F 30.02 in West 2.0 mph 4.0 mph 79% 0.00 in 0 W/m2
02:52 42.2 °F 36.2 °F 30.02 in WSW 2.0 mph 2.0 mph 79% 0.00 in 0 W/m2
02:58 42.2 °F 35.8 °F 30.02 in WSW 2.0 mph 7.0 mph 78% 0.00 in 0 W/m2
03:04 42.2 °F 35.8 °F 30.02 in WSW 2.0 mph 6.0 mph 78% 0.00 in 0 W/m2
03:10 42.2 °F 35.8 °F 30.03 in SW 2.0 mph 2.0 mph 78% 0.00 in 0 W/m2
03:16 42.1 °F 35.7 °F 30.03 in WNW 2.0 mph 3.0 mph 78% 0.00 in 0 W/m2
03:22 42.1 °F 36.1 °F 30.03 in WNW 2.0 mph 3.0 mph 79% 0.00 in 0 W/m2
03:34 42.0 °F 36.0 °F 30.03 in WSW 2.0 mph 3.0 mph 79% 0.00 in 0 W/m2
03:40 42.0 °F 35.6 °F 30.03 in SW 2.0 mph 2.0 mph 78% 0.00 in 0 W/m2
03:46 42.0 °F 36.0 °F 30.04 in WNW 1.0 mph 2.0 mph 79% 0.00 in 0 W/m2
03:52 41.9 °F 35.9 °F 30.04 in WNW 1.0 mph 2.0 mph 79% 0.00 in 0 W/m2
03:58 41.8 °F 35.8 °F 30.05 in West 1.0 mph 5.0 mph 79% 0.00 in 0 W/m2
04:04 41.9 °F 35.9 °F 30.05 in WNW 2.0 mph 2.0 mph 79% 0.00 in 0 W/m2
04:10 41.9 °F 35.9 °F 30.05 in West 1.0 mph 2.0 mph 79% 0.00 in 0 W/m2
04:22 42.0 °F 36.0 °F 30.06 in West 2.0 mph 2.0 mph 79% 0.00 in 0 W/m2
04:28 42.0 °F 36.0 °F 30.06 in West 1.0 mph 2.0 mph 79% 0.00 in 0 W/m2
04:34 41.9 °F 35.9 °F 30.06 in West 1.0 mph 2.0 mph 79% 0.00 in 0 W/m2
04:40 41.9 °F 35.9 °F 30.06 in West 1.0 mph 1.0 mph 79% 0.00 in 0 W/m2
04:46 41.9 °F 35.9 °F 30.07 in West 1.0 mph 4.0 mph 79% 0.00 in 0 W/m2
04:52 41.8 °F 36.1 °F 30.07 in WSW 2.0 mph 3.0 mph 80% 0.00 in 0 W/m2
04:58 41.5 °F 35.8 °F 30.07 in WSW 3.0 mph 3.0 mph 80% 0.00 in 0 W/m2
05:04 41.3 °F 35.6 °F 30.07 in West 2.0 mph 3.0 mph 80% 0.00 in 0 W/m2
05:28 41.5 °F 35.5 °F 30.08 in WNW 2.0 mph 4.0 mph 79% 0.00 in 0 W/m2
05:34 41.6 °F 35.2 °F 30.09 in WNW 3.0 mph 5.0 mph 78% 0.00 in 0 W/m2
05:40 41.6 °F 35.2 °F 30.09 in WNW 2.0 mph 2.0 mph 78% 0.00 in 0 W/m2
05:46 41.6 °F 35.2 °F 30.09 in WNW 2.0 mph 3.0 mph 78% 0.00 in 0 W/m2
05:58 41.6 °F 35.2 °F 30.09 in WNW 2.0 mph 6.0 mph 78% 0.00 in 0 W/m2
06:04 41.7 °F 35.0 °F 30.09 in NW 3.0 mph 3.0 mph 77% 0.00 in 0 W/m2
06:10 41.6 °F 34.9 °F 30.10 in WNW 1.0 mph 1.0 mph 77% 0.00 in 0 W/m2
06:16 41.6 °F 34.9 °F 30.10 in WNW 2.0 mph 5.0 mph 77% 0.00 in 0 W/m2
06:28 41.5 °F 34.8 °F 30.11 in WNW 1.0 mph 2.0 mph 77% 0.00 in 0 W/m2
06:34 41.4 °F 34.7 °F 30.11 in WNW 1.0 mph 3.0 mph 77% 0.00 in 0 W/m2
06:40 41.3 °F 34.6 °F 30.11 in WNW 1.0 mph 3.0 mph 77% 0.00 in 0 W/m2
06:46 41.4 °F 34.7 °F 30.11 in NE 2.0 mph 6.0 mph 77% 0.00 in 0 W/m2
06:58 39.8 °F 33.8 °F 30.12 in NW 6.0 mph 13.0 mph 79% 0.00 in 0 W/m2
07:04 39.1 °F 33.8 °F 30.13 in WNW 5.0 mph 6.0 mph 81% 0.00 in 0 W/m2
07:10 38.7 °F 34.0 °F 30.13 in WNW 4.0 mph 5.0 mph 83% 0.00 in 0 W/m2
07:16 38.6 °F 33.9 °F 30.14 in WNW 4.0 mph 7.0 mph 83% 0.00 in 0 W/m2
07:22 38.4 °F 34.0 °F 30.14 in NNW 4.0 mph 4.0 mph 84% 0.00 in 0 W/m2
07:28 38.3 °F 33.9 °F 30.14 in NW 3.0 mph 4.0 mph 84% 0.00 in 5 W/m2
07:34 38.3 °F 33.9 °F 30.14 in NNW 3.0 mph 5.0 mph 84% 0.00 in 5 W/m2
07:46 38.2 °F 34.1 °F 30.14 in North 2.0 mph 3.0 mph 85% 0.00 in 14 W/m2
07:52 38.2 °F 34.1 °F 30.14 in NW 1.0 mph 2.0 mph 85% 0.00 in 12 W/m2
08:33 38.7 °F 34.9 °F 30.16 in Calm     86% 0.00 in 46 W/m2
08:39 38.8 °F 35.0 °F 30.16 in Calm     86% 0.00 in 51 W/m2
08:45 39.0 °F 35.2 °F 30.17 in NW 1.0 mph 2.0 mph 86% 0.00 in 60 W/m2
08:52 39.3 °F 35.5 °F 30.17 in NW 1.0 mph 2.0 mph 86% 0.00 in 62 W/m2
08:58 39.4 °F 35.3 °F 30.17 in NW 1.0 mph 1.0 mph 85% 0.00 in 53 W/m2
09:03 39.5 °F 35.4 °F 30.17 in NW 2.0 mph 2.0 mph 85% 0.00 in 39 W/m2
09:09 39.6 °F 35.5 °F 30.18 in NW 2.0 mph 2.0 mph 85% 0.00 in 53 W/m2
09:22 39.4 °F 35.3 °F 30.17 in West 2.0 mph 2.0 mph 85% 0.00 in 100 W/m2
09:28 39.5 °F 35.4 °F 30.17 in Calm   2.0 mph 85% 0.00 in 123 W/m2
09:33 39.8 °F 35.7 °F 30.17 in Calm   1.0 mph 85% 0.00 in 93 W/m2
09:40 39.9 °F 35.5 °F 30.18 in NW 1.0 mph 3.0 mph 84% 0.00 in 42 W/m2
09:45 39.6 °F 35.2 °F 30.18 in NW 3.0 mph 5.0 mph 84% 0.00 in 134 W/m2
09:52 39.5 °F 35.1 °F 30.19 in NNW 5.0 mph 5.0 mph 84% 0.00 in 134 W/m2
09:58 39.4 °F 35.3 °F 30.19 in NNW 4.0 mph 5.0 mph 85% 0.00 in 114 W/m2
10:03 39.5 °F 35.4 °F 30.19 in WNW 3.0 mph 4.0 mph 85% 0.00 in 104 W/m2
10:09 39.5 °F 35.7 °F 30.20 in NW 3.0 mph 3.0 mph 86% 0.00 in 77 W/m2
10:28 39.0 °F 34.9 °F 30.20 in NW 3.0 mph 5.0 mph 85% 0.00 in 76 W/m2
10:33 38.9 °F 34.8 °F 30.20 in NNW 4.0 mph 7.0 mph 85% 0.00 in 77 W/m2
10:39 38.9 °F 34.8 °F 30.20 in NW 4.0 mph 4.0 mph 85% 0.00 in 116 W/m2
10:45 39.0 °F 34.9 °F 30.20 in NNW 4.0 mph 6.0 mph 85% 0.00 in 121 W/m2
10:52 39.0 °F 35.2 °F 30.20 in NW 4.0 mph 4.0 mph 86% 0.00 in 162 W/m2
10:58 39.4 °F 35.6 °F 30.20 in NW 2.0 mph 4.0 mph 86% 0.00 in 130 W/m2
11:03 39.7 °F 35.9 °F 30.20 in NW 2.0 mph 2.0 mph 86% 0.00 in 79 W/m2
11:30 39.9 °F 35.8 °F 30.20 in West 1.0 mph 2.0 mph 85% 0.00 in 90 W/m2
11:35 40.0 °F 35.9 °F 30.20 in West 1.0 mph 1.0 mph 85% 0.00 in 93 W/m2
11:42 40.1 °F 35.7 °F 30.20 in West 1.0 mph 1.0 mph 84% 0.00 in 111 W/m2
11:48 40.4 °F 35.9 °F 30.19 in Calm   1.0 mph 84% 0.00 in 107 W/m2
11:53 40.6 °F 35.8 °F 30.19 in West 1.0 mph 1.0 mph 83% 0.00 in 141 W/m2
12:00 40.9 °F 36.1 °F 30.19 in West 1.0 mph 1.0 mph 83% 0.00 in 167 W/m2
12:05 41.1 °F 35.7 °F 30.19 in West 1.0 mph 3.0 mph 81% 0.00 in 158 W/m2
12:12 41.5 °F 36.1 °F 30.19 in West 1.0 mph 1.0 mph 81% 0.00 in 142 W/m2
12:18 41.5 °F 35.8 °F 30.19 in West 2.0 mph 3.0 mph 80% 0.00 in 139 W/m2
12:29 41.4 °F 35.1 °F 30.19 in WSW 2.0 mph 2.0 mph 78% 0.00 in 178 W/m2
12:35 41.6 °F 35.2 °F 30.18 in SW 3.0 mph 3.0 mph 78% 0.00 in 209 W/m2
12:42 41.9 °F 35.5 °F 30.18 in SW 1.0 mph 3.0 mph 78% 0.00 in 236 W/m2
12:48 42.1 °F 35.1 °F 30.18 in WSW 2.0 mph 3.0 mph 76% 0.00 in 185 W/m2
12:53 42.0 °F 34.6 °F 30.18 in West 3.0 mph 4.0 mph 75% 0.00 in 200 W/m2
12:59 41.8 °F 34.5 °F 30.19 in WSW 3.0 mph 3.0 mph 75% 0.00 in 158 W/m2
13:05 41.9 °F 34.6 °F 30.19 in WSW 2.0 mph 3.0 mph 75% 0.00 in 149 W/m2
13:12 41.8 °F 34.5 °F 30.19 in SW 2.0 mph 3.0 mph 75% 0.00 in 146 W/m2
13:18 41.7 °F 34.0 °F 30.19 in West 2.0 mph 3.0 mph 74% 0.00 in 123 W/m2
13:23 41.7 °F 34.4 °F 30.19 in SW 2.0 mph 4.0 mph 75% 0.00 in 135 W/m2
13:30 42.0 °F 34.6 °F 30.20 in SW 1.0 mph 1.0 mph 75% 0.00 in 130 W/m2
13:35 42.1 °F 34.4 °F 30.20 in WNW 1.0 mph 3.0 mph 74% 0.00 in 107 W/m2
13:42 42.0 °F 34.0 °F 30.20 in NNW 2.0 mph 3.0 mph 73% 0.00 in 62 W/m2
13:48 41.5 °F 33.8 °F 30.20 in WNW 3.0 mph 5.0 mph 74% 0.00 in 58 W/m2
13:53 41.1 °F 34.1 °F 30.20 in NW 3.0 mph 3.0 mph 76% 0.00 in 54 W/m2
13:59 40.8 °F 34.1 °F 30.20 in NW 2.0 mph 2.0 mph 77% 0.00 in 62 W/m2
14:05 40.8 °F 34.1 °F 30.20 in NNW 1.0 mph 2.0 mph 77% 0.00 in 72 W/m2
14:12 40.8 °F 34.5 °F 30.20 in NNW 1.0 mph 2.0 mph 78% 0.00 in 127 W/m2
14:18 40.8 °F 34.5 °F 30.20 in NNW 1.0 mph 2.0 mph 78% 0.00 in 127 W/m2
14:23 40.8 °F 34.8 °F 30.20 in NNW 1.0 mph 1.0 mph 79% 0.00 in 121 W/m2
14:35 41.0 °F 34.3 °F 30.20 in NNW 1.0 mph 4.0 mph 77% 0.00 in 90 W/m2
14:42 41.1 °F 34.8 °F 30.21 in NNW 1.0 mph 1.0 mph 78% 0.00 in 62 W/m2
14:48 41.1 °F 34.4 °F 30.21 in NNW 1.0 mph 4.0 mph 77% 0.00 in 44 W/m2
14:53 41.0 °F 34.3 °F 30.21 in NNW 1.0 mph 3.0 mph 77% 0.00 in 33 W/m2
14:59 40.8 °F 34.5 °F 30.21 in NNW 2.0 mph 2.0 mph 78% 0.00 in 30 W/m2
15:08 40.7 °F 34.4 °F 30.22 in NNW 1.0 mph 2.0 mph 78% 0.00 in 30 W/m2
15:13 40.6 °F 34.6 °F 30.22 in NNW 1.0 mph 1.0 mph 79% 0.00 in 39 W/m2
15:25 40.7 °F 34.7 °F 30.22 in Calm     79% 0.00 in 40 W/m2
15:32 40.7 °F 34.7 °F 30.22 in Calm     79% 0.00 in 37 W/m2
15:38 40.7 °F 34.7 °F 30.22 in Calm   1.0 mph 79% 0.00 in 32 W/m2
15:43 40.7 °F 34.7 °F 30.22 in Calm     79% 0.00 in 26 W/m2
15:50 40.7 °F 34.7 °F 30.22 in Calm     79% 0.00 in 21 W/m2
16:20 40.6 °F 34.3 °F 30.22 in Calm     78% 0.00 in 7 W/m2
16:25 40.5 °F 34.2 °F 30.22 in Calm     78% 0.00 in 0 W/m2
16:32 40.3 °F 34.3 °F 30.22 in Calm     79% 0.00 in 0 W/m2
16:38 40.0 °F 34.3 °F 30.22 in Calm     80% 0.00 in 0 W/m2
16:49 39.5 °F 33.8 °F 30.22 in Calm     80% 0.00 in 0 W/m2
17:02 38.4 °F 33.1 °F 30.22 in Calm     81% 0.00 in 0 W/m2
17:08 37.9 °F 32.9 °F 30.22 in Calm     82% 0.00 in 0 W/m2
17:25 36.3 °F 31.6 °F 30.23 in Calm     83% 0.00 in 0 W/m2
17:32 35.8 °F 31.4 °F 30.23 in Calm     84% 0.00 in 0 W/m2
17:38 35.5 °F 31.4 °F 30.23 in Calm     85% 0.00 in 0 W/m2
17:43 35.1 °F 31.0 °F 30.23 in Calm     85% 0.00 in 0 W/m2
17:55 34.3 °F 30.3 °F 30.23 in Calm     85% 0.00 in 0 W/m2
18:13 33.4 °F 29.9 °F 30.24 in Calm     87% 0.00 in 0 W/m2
18:20 33.2 °F 29.8 °F 30.24 in Calm     87% 0.00 in 0 W/m2
18:25 33.1 °F 29.7 °F 30.24 in Calm     87% 0.00 in 0 W/m2
18:32 32.8 °F 29.6 °F 30.24 in Calm     88% 0.00 in 0 W/m2
18:38 32.6 °F 29.4 °F 30.24 in Calm     88% 0.00 in 0 W/m2
18:43 32.2 °F 29.0 °F 30.25 in Calm     88% 0.00 in 0 W/m2
18:50 31.9 °F 28.8 °F 30.25 in Calm     88% 0.00 in 0 W/m2
18:55 31.6 °F 28.5 °F 30.25 in Calm     88% 0.00 in 0 W/m2
19:02 31.2 °F 28.1 °F 30.25 in Calm     88% 0.00 in 0 W/m2
19:08 31.1 °F 28.0 °F 30.26 in Calm     88% 0.00 in 0 W/m2
19:20 30.8 °F 27.9 °F 30.26 in Calm     89% 0.00 in 0 W/m2
19:25 30.5 °F 27.4 °F 30.26 in Calm     88% 0.00 in 0 W/m2
19:28 30.4 °F 27.3 °F 30.26 in Calm     88% 0.00 in 0 W/m2
19:33 30.2 °F 27.3 °F 30.26 in Calm     89% 0.00 in 0 W/m2
19:40 30.1 °F 27.3 °F 30.26 in Calm     89% 0.00 in 0 W/m2
19:58 30.0 °F 27.4 °F 30.26 in Calm     90% 0.00 in 0 W/m2
20:03 29.9 °F 27.3 °F 30.26 in Calm     90% 0.00 in 0 W/m2
20:15 29.9 °F 27.3 °F 30.26 in Calm     90% 0.00 in 0 W/m2
20:22 29.9 °F 27.3 °F 30.27 in Calm     90% 0.00 in 0 W/m2
20:28 29.8 °F 27.2 °F 30.27 in Calm     90% 0.00 in 0 W/m2
20:33 29.8 °F 27.2 °F 30.26 in Calm     90% 0.00 in 0 W/m2
20:39 29.5 °F 26.9 °F 30.26 in Calm     90% 0.00 in 0 W/m2
20:45 29.5 °F 26.9 °F 30.26 in Calm     90% 0.00 in 0 W/m2
20:52 29.4 °F 27.1 °F 30.25 in Calm     91% 0.00 in 0 W/m2
20:58 29.2 °F 26.9 °F 30.25 in Calm     91% 0.00 in 0 W/m2
21:03 29.1 °F 26.8 °F 30.25 in Calm     91% 0.00 in 0 W/m2
21:22 28.9 °F 26.6 °F 30.25 in Calm     91% 0.00 in 0 W/m2
21:28 28.9 °F 26.6 °F 30.25 in Calm     91% 0.00 in 0 W/m2
21:40 28.7 °F 26.4 °F 30.25 in Calm     91% 0.00 in 0 W/m2
21:45 28.5 °F 26.2 °F 30.24 in Calm     91% 0.00 in 0 W/m2
21:52 28.4 °F 26.1 °F 30.24 in Calm     91% 0.00 in 0 W/m2
21:58 28.3 °F 26.0 °F 30.24 in Calm     91% 0.00 in 0 W/m2
22:18 28.3 °F 26.0 °F 30.24 in Calm     91% 0.00 in 0 W/m2
22:23 28.2 °F 26.2 °F 30.24 in Calm     92% 0.00 in 0 W/m2
22:29 28.2 °F 26.2 °F 30.24 in Calm     92% 0.00 in 0 W/m2
22:35 28.0 °F 25.7 °F 30.24 in Calm     91% 0.00 in 0 W/m2
22:42 27.9 °F 25.9 °F 30.24 in Calm     92% 0.00 in 0 W/m2
22:53 27.7 °F 25.7 °F 30.25 in Calm     92% 0.00 in 0 W/m2
23:00 27.7 °F 25.7 °F 30.24 in Calm     92% 0.00 in 0 W/m2
23:02 27.7 °F 25.7 °F 30.24 in Calm     92% 0.00 in 0 W/m2
23:08 27.6 °F 25.6 °F 30.24 in Calm     92% 0.00 in 0 W/m2
23:13 27.5 °F 25.5 °F 30.24 in Calm     92% 0.00 in 0 W/m2
23:19 27.3 °F 25.3 °F 30.24 in Calm     92% 0.00 in 0 W/m2
23:32 27.5 °F 25.5 °F 30.24 in Calm     92% 0.00 in 0 W/m2
23:43 27.3 °F 25.3 °F 30.24 in Calm     92% 0.00 in 0 W/m2
23:49 27.1 °F 25.1 °F 30.24 in Calm     92% 0.00 in 0 W/m2
23:55 27.0 °F 25.0 °F 30.24 in Calm     92% 0.00 in 0 W/m2
Country Meadow, Clay, NY, USA
Compliments of Weather Underground - 2 mb